createdAt,value
2023-02-05T00:01:06.169Z,12.50
2023-02-05T00:03:36.134Z,12.30
2023-02-05T00:06:04.468Z,12.80
2023-02-05T00:08:33.921Z,11.20
2023-02-05T00:11:09.611Z,11.00
2023-02-05T00:13:39.571Z,9.30
2023-02-05T00:16:08.916Z,10.10
2023-02-05T00:18:37.722Z,9.00
2023-02-05T00:21:06.596Z,9.80
2023-02-05T00:23:35.320Z,10.50
2023-02-05T00:26:04.476Z,10.10
2023-02-05T00:28:34.190Z,9.50
2023-02-05T00:31:08.125Z,8.80
2023-02-05T00:33:36.991Z,8.70
2023-02-05T00:36:05.779Z,11.00
2023-02-05T00:38:34.342Z,9.00
2023-02-05T00:41:03.263Z,9.30
2023-02-05T00:43:31.774Z,9.10
2023-02-05T00:46:00.048Z,9.20
2023-02-05T00:48:28.991Z,9.70
2023-02-05T00:50:57.256Z,8.90
2023-02-05T00:53:25.567Z,9.80
2023-02-05T00:55:53.866Z,10.00
2023-02-05T00:58:22.344Z,9.30
2023-02-05T01:00:51.173Z,10.00
2023-02-05T01:03:21.604Z,9.40
2023-02-05T01:05:50.113Z,11.20
2023-02-05T01:08:18.612Z,11.90
2023-02-05T01:10:48.415Z,12.40
2023-02-05T01:13:18.152Z,11.20
2023-02-05T01:15:46.812Z,12.40
2023-02-05T01:18:16.730Z,10.80
2023-02-05T01:20:45.453Z,12.40
2023-02-05T01:23:13.897Z,12.40
2023-02-05T01:25:42.783Z,12.70
2023-02-05T01:28:12.040Z,12.70
2023-02-05T01:30:41.058Z,11.50
2023-02-05T01:33:09.386Z,11.90
2023-02-05T01:35:39.083Z,11.00
2023-02-05T01:38:07.487Z,12.10
2023-02-05T01:40:39.057Z,13.10
2023-02-05T01:43:15.390Z,12.90
2023-02-05T01:45:51.195Z,12.50
2023-02-05T01:48:22.755Z,11.60
2023-02-05T01:50:53.229Z,12.20
2023-02-05T01:53:29.592Z,12.00
2023-02-05T01:56:00.330Z,12.10
2023-02-05T01:58:31.568Z,12.10
2023-02-05T02:01:00.034Z,12.70
2023-02-05T02:03:28.504Z,12.00
2023-02-05T02:05:57.657Z,11.20
2023-02-05T02:08:26.731Z,10.90
2023-02-05T02:10:54.955Z,11.00
2023-02-05T02:13:23.361Z,12.60
2023-02-05T02:15:52.114Z,12.50
2023-02-05T02:18:26.515Z,12.40
2023-02-05T02:21:10.273Z,9.90
2023-02-05T02:24:02.231Z,9.60
2023-02-05T02:29:04.997Z,9.70
2023-02-05T02:31:55.932Z,9.90
2023-02-05T02:34:39.539Z,9.40
2023-02-05T02:37:13.266Z,9.10
2023-02-05T02:39:44.911Z,9.50
2023-02-05T02:42:16.962Z,9.00
2023-02-05T02:44:49.055Z,9.90
2023-02-05T02:47:27.231Z,9.70
2023-02-05T02:49:58.839Z,8.80
2023-02-05T02:52:27.801Z,7.20
2023-02-05T02:54:57.641Z,7.90
2023-02-05T02:57:27.452Z,8.50
2023-02-05T02:59:57.012Z,8.20
2023-02-05T03:02:26.758Z,8.40
2023-02-05T03:04:57.674Z,8.00
2023-02-05T03:07:28.746Z,6.80
2023-02-05T03:10:04.863Z,7.80
2023-02-05T03:12:36.324Z,7.10
2023-02-05T03:15:05.316Z,6.70
2023-02-05T03:17:34.755Z,7.60
2023-02-05T03:20:37.679Z,6.30
2023-02-05T03:23:06.033Z,6.40
2023-02-05T03:25:36.824Z,6.90
2023-02-05T03:28:05.622Z,5.80
2023-02-05T03:30:49.663Z,5.60
2023-02-05T03:33:34.044Z,5.60
2023-02-05T03:36:08.465Z,4.90
2023-02-05T03:38:49.923Z,5.30
2023-02-05T03:42:10.252Z,4.40
2023-02-05T03:44:49.376Z,4.10
2023-02-05T03:47:37.152Z,4.10
2023-02-05T03:50:08.396Z,4.20
2023-02-05T03:52:41.103Z,5.10
2023-02-05T03:55:11.213Z,4.20
2023-02-05T03:58:32.096Z,4.80
2023-02-05T04:01:00.481Z,4.40
2023-02-05T04:03:30.155Z,4.20
2023-02-05T04:05:59.678Z,5.40
2023-02-05T04:08:28.199Z,5.00
2023-02-05T04:10:56.659Z,5.10
2023-02-05T04:13:26.709Z,6.00
2023-02-05T04:15:55.558Z,5.20
2023-02-05T04:18:23.821Z,5.40
2023-02-05T04:20:52.358Z,4.60
2023-02-05T04:23:23.241Z,5.40
2023-02-05T04:25:55.320Z,5.50
2023-02-05T04:28:29.419Z,5.20
2023-02-05T04:30:58.479Z,5.70
2023-02-05T04:33:26.939Z,5.10
2023-02-05T04:36:00.690Z,5.30
2023-02-05T04:38:29.237Z,5.50
2023-02-05T04:40:58.009Z,4.00
2023-02-05T04:43:26.412Z,5.10
2023-02-05T04:45:54.960Z,4.50
2023-02-05T04:48:23.380Z,4.50
2023-02-05T04:50:51.681Z,4.20
2023-02-05T04:53:20.235Z,4.80
2023-02-05T04:55:48.646Z,4.20
2023-02-05T04:58:17.647Z,4.40
2023-02-05T05:00:46.784Z,4.10
2023-02-05T05:03:15.021Z,4.00
2023-02-05T05:05:43.252Z,3.80
2023-02-05T05:08:11.707Z,4.30
2023-02-05T05:10:40.000Z,3.50
2023-02-05T05:13:08.226Z,3.30
2023-02-05T05:15:36.866Z,4.00
2023-02-05T05:18:07.115Z,3.30
2023-02-05T05:20:36.403Z,4.10
2023-02-05T05:23:05.358Z,3.90
2023-02-05T05:25:33.829Z,4.00
2023-02-05T05:28:02.238Z,4.40
2023-02-05T05:30:30.682Z,4.60
2023-02-05T05:32:59.073Z,3.80
2023-02-05T05:35:27.441Z,4.40
2023-02-05T05:37:57.283Z,4.50
2023-02-05T05:40:44.613Z,4.80
2023-02-05T05:43:32.586Z,4.10
2023-02-05T05:46:00.976Z,4.80
2023-02-05T05:48:29.640Z,4.70
2023-02-05T05:50:57.871Z,4.70
2023-02-05T05:53:27.100Z,4.70
2023-02-05T05:55:55.508Z,4.50
2023-02-05T05:58:24.468Z,4.60
2023-02-05T06:00:52.891Z,4.70
2023-02-05T06:03:22.363Z,4.70
2023-02-05T06:05:50.889Z,3.90
2023-02-05T06:08:19.823Z,4.40
2023-02-05T06:10:48.108Z,4.60
2023-02-05T06:13:16.342Z,4.00
2023-02-05T06:15:45.013Z,4.00
2023-02-05T06:18:17.995Z,5.10
2023-02-05T06:20:47.221Z,4.60
2023-02-05T06:23:15.763Z,4.00
2023-02-05T06:25:44.009Z,5.00
2023-02-05T06:28:12.265Z,4.20
2023-02-05T06:30:41.162Z,4.30
2023-02-05T06:33:12.900Z,4.50
2023-02-05T06:35:42.169Z,4.20
2023-02-05T06:38:10.901Z,5.40
2023-02-05T06:40:39.488Z,4.10
2023-02-05T06:43:08.172Z,4.10
2023-02-05T06:45:37.478Z,3.80
2023-02-05T06:48:06.167Z,3.80
2023-02-05T06:50:36.173Z,5.10
2023-02-05T06:53:04.982Z,4.60
2023-02-05T06:55:33.653Z,3.90
2023-02-05T06:58:02.316Z,3.70
2023-02-05T07:00:32.500Z,4.60
2023-02-05T07:03:01.133Z,4.70
2023-02-05T07:05:30.129Z,4.50
2023-02-05T07:07:59.935Z,4.40
2023-02-05T07:10:28.254Z,3.40
2023-02-05T07:12:56.573Z,4.30
2023-02-05T07:15:25.189Z,3.80
2023-02-05T07:17:53.494Z,4.90
2023-02-05T07:20:23.530Z,4.30
2023-02-05T07:22:51.903Z,4.70
2023-02-05T07:25:20.118Z,5.30
2023-02-05T07:27:48.553Z,4.70
2023-02-05T07:30:17.096Z,4.70
2023-02-05T07:32:45.766Z,4.50
2023-02-05T07:35:14.080Z,4.00
2023-02-05T07:37:42.542Z,4.00
2023-02-05T07:40:11.559Z,4.00
2023-02-05T07:42:39.983Z,3.70
2023-02-05T07:45:09.503Z,4.40
2023-02-05T07:47:40.464Z,4.10
2023-02-05T07:50:09.011Z,3.60
2023-02-05T07:52:37.648Z,3.40
2023-02-05T07:55:06.909Z,3.40
2023-02-05T07:57:35.303Z,3.90
2023-02-05T08:00:04.949Z,3.20
2023-02-05T08:02:40.414Z,3.70
2023-02-05T08:05:10.742Z,3.30
2023-02-05T08:07:39.204Z,4.30
2023-02-05T08:10:10.469Z,4.20
2023-02-05T08:12:41.613Z,4.60
2023-02-05T08:15:12.593Z,3.70
2023-02-05T08:17:41.247Z,3.00
2023-02-05T08:20:11.366Z,3.60
2023-02-05T08:22:41.184Z,3.50
2023-02-05T08:25:12.325Z,3.60
2023-02-05T08:27:42.265Z,3.60
2023-02-05T08:30:14.349Z,3.30
2023-02-05T08:32:43.129Z,3.90
2023-02-05T08:35:16.418Z,3.50
2023-02-05T08:37:46.309Z,3.80
2023-02-05T08:40:16.359Z,4.40
2023-02-05T08:42:44.813Z,4.10
2023-02-05T08:45:14.806Z,6.50
2023-02-05T08:48:04.875Z,4.10
2023-02-05T08:50:35.834Z,7.40
2023-02-05T08:53:04.850Z,3.90
2023-02-05T08:55:34.403Z,3.60
2023-02-05T08:58:03.668Z,4.80
2023-02-05T09:00:33.794Z,3.10
2023-02-05T09:03:06.989Z,4.10
2023-02-05T09:05:35.724Z,3.60
2023-02-05T09:08:04.361Z,3.30
2023-02-05T09:10:33.954Z,3.40
2023-02-05T09:13:03.678Z,3.90
2023-02-05T09:15:33.575Z,5.80
2023-02-05T09:18:02.035Z,4.70
2023-02-05T09:20:30.741Z,5.00
2023-02-05T09:23:00.093Z,4.10
2023-02-05T09:25:30.278Z,5.40
2023-02-05T09:27:58.803Z,5.30
2023-02-05T09:30:27.167Z,3.80
2023-02-05T09:32:56.258Z,3.50
2023-02-05T09:35:24.592Z,3.70
2023-02-05T09:37:53.038Z,3.90
2023-02-05T09:40:23.153Z,4.70
2023-02-05T09:43:00.681Z,5.00
2023-02-05T09:45:39.253Z,4.10
2023-02-05T09:48:31.027Z,4.10
2023-02-05T09:50:59.348Z,3.50
2023-02-05T09:53:29.321Z,3.50
2023-02-05T09:55:57.860Z,3.80
2023-02-05T09:58:27.986Z,4.70
2023-02-05T10:01:07.525Z,4.70
2023-02-05T10:03:44.503Z,4.50
2023-02-05T10:06:52.497Z,4.00
2023-02-05T10:09:33.219Z,4.10
2023-02-05T10:12:19.672Z,4.30
2023-02-05T10:15:25.642Z,3.90
2023-02-05T10:18:00.149Z,4.40
2023-02-05T10:20:59.015Z,4.30
2023-02-05T10:23:30.649Z,5.90
2023-02-05T10:25:59.046Z,4.50
2023-02-05T10:28:45.880Z,5.80
2023-02-05T10:31:58.615Z,4.70
2023-02-05T10:34:53.015Z,3.90
2023-02-05T10:37:36.027Z,4.00
2023-02-05T10:40:14.344Z,4.40
2023-02-05T10:42:51.816Z,4.10
2023-02-05T10:45:38.129Z,3.80
2023-02-05T10:48:21.878Z,5.20
2023-02-05T10:50:56.407Z,5.10
2023-02-05T10:53:25.658Z,5.80
2023-02-05T10:55:54.268Z,4.30
2023-02-05T10:58:28.913Z,3.70
2023-02-05T11:00:57.240Z,4.00
2023-02-05T11:03:25.627Z,4.50
2023-02-05T11:05:54.264Z,5.00
2023-02-05T11:08:36.673Z,5.80
2023-02-05T11:11:05.627Z,6.80
2023-02-05T11:13:34.872Z,5.90
2023-02-05T11:16:04.894Z,5.90
2023-02-05T11:18:36.294Z,4.70
2023-02-05T11:21:05.795Z,5.50
2023-02-05T11:23:40.455Z,6.00
2023-02-05T11:26:20.337Z,5.80
2023-02-05T11:28:49.162Z,5.60
2023-02-05T11:31:32.336Z,5.00
2023-02-05T11:34:17.309Z,5.00
2023-02-05T11:36:56.099Z,5.90
2023-02-05T11:39:27.760Z,6.70
2023-02-05T11:41:56.862Z,6.10
2023-02-05T11:44:26.784Z,5.20
2023-02-05T11:46:57.897Z,4.80
2023-02-05T11:49:34.638Z,3.60
2023-02-05T11:52:12.919Z,4.30
2023-02-05T11:54:46.974Z,5.00
2023-02-05T11:57:18.328Z,5.40
2023-02-05T12:00:00.156Z,5.10
2023-02-05T12:02:31.323Z,5.90
2023-02-05T12:05:12.359Z,5.20
2023-02-05T12:08:00.333Z,5.00
2023-02-05T12:10:38.174Z,5.70
2023-02-05T12:13:14.986Z,5.40
2023-02-05T12:15:55.972Z,5.60
2023-02-05T12:18:44.787Z,5.30
2023-02-05T12:21:23.491Z,7.10
2023-02-05T12:24:14.902Z,6.70
2023-02-05T12:26:44.786Z,5.60
2023-02-05T12:29:21.845Z,6.30
2023-02-05T12:31:59.410Z,5.30
2023-02-05T12:34:43.570Z,5.80
2023-02-05T12:37:45.817Z,5.70
2023-02-05T12:40:29.408Z,6.00
2023-02-05T12:43:27.856Z,5.50
2023-02-05T12:45:59.341Z,5.00
2023-02-05T12:48:40.418Z,4.80
2023-02-05T12:51:39.282Z,5.20
2023-02-05T12:54:20.039Z,5.20
2023-02-05T12:56:55.761Z,5.40
2023-02-05T12:59:28.873Z,5.50
2023-02-05T13:02:05.040Z,5.20
2023-02-05T13:04:39.304Z,5.10
2023-02-05T13:07:11.981Z,7.70
2023-02-05T13:09:45.195Z,7.00
2023-02-05T13:12:15.794Z,5.40
2023-02-05T13:14:56.564Z,6.30
2023-02-05T13:19:57.239Z,6.70
2023-02-05T13:26:05.011Z,6.10
2023-02-05T13:28:45.010Z,5.50
2023-02-05T13:31:24.725Z,5.90
2023-02-05T13:33:55.006Z,6.20
2023-02-05T13:36:29.312Z,6.50
2023-02-05T13:39:34.867Z,6.40
2023-02-05T13:42:40.627Z,7.30
2023-02-05T13:45:24.152Z,8.10
2023-02-05T13:47:56.807Z,6.00
2023-02-05T13:50:37.674Z,5.80
2023-02-05T13:53:24.121Z,7.10
2023-02-05T13:56:08.749Z,8.50
2023-02-05T13:58:53.577Z,6.70
2023-02-05T14:01:34.824Z,7.30
2023-02-05T14:04:28.638Z,9.20
2023-02-05T14:07:15.042Z,8.00
2023-02-05T14:09:45.310Z,7.30
2023-02-05T14:12:22.478Z,6.70
2023-02-05T14:15:15.745Z,6.30
2023-02-05T14:17:44.175Z,7.20
2023-02-05T14:20:26.080Z,5.70
2023-02-05T14:23:01.311Z,7.60
2023-02-05T14:25:35.789Z,8.50
2023-02-05T14:28:04.519Z,9.60
2023-02-05T14:30:45.155Z,8.50
2023-02-05T14:33:26.526Z,8.40
2023-02-05T14:35:56.080Z,7.70
2023-02-05T14:38:34.462Z,6.50
2023-02-05T14:41:13.273Z,6.90
2023-02-05T14:43:44.160Z,6.90
2023-02-05T14:46:40.067Z,8.30
2023-02-05T14:49:22.299Z,7.90
2023-02-05T14:52:00.596Z,8.10
2023-02-05T14:54:33.705Z,7.70
2023-02-05T14:57:24.122Z,7.90
2023-02-05T15:00:20.693Z,9.00
2023-02-05T15:03:01.085Z,9.30
2023-02-05T15:05:45.431Z,8.60
2023-02-05T15:10:54.915Z,9.50
2023-02-05T15:13:24.669Z,10.10
2023-02-05T15:16:11.421Z,8.80
2023-02-05T15:18:50.695Z,10.70
2023-02-05T15:21:30.692Z,10.00
2023-02-05T15:24:03.765Z,9.00
2023-02-05T15:26:39.308Z,9.30
2023-02-05T15:29:13.680Z,11.00
2023-02-05T15:31:55.010Z,10.30
2023-02-05T15:34:36.621Z,9.10
2023-02-05T15:37:23.330Z,8.40
2023-02-05T15:39:54.411Z,8.80
2023-02-05T15:44:59.869Z,12.60
2023-02-05T15:47:30.166Z,10.00
2023-02-05T15:50:00.304Z,11.50
2023-02-05T15:52:30.305Z,10.40
2023-02-05T15:55:00.393Z,10.10
2023-02-05T15:57:30.301Z,10.30
2023-02-05T15:59:59.358Z,10.80
2023-02-05T16:02:30.910Z,12.90
2023-02-05T16:05:15.339Z,11.20
2023-02-05T16:07:44.871Z,10.50
2023-02-05T16:10:24.280Z,11.30
2023-02-05T16:13:05.853Z,11.70
2023-02-05T16:15:41.324Z,10.90
2023-02-05T16:18:42.061Z,11.20
2023-02-05T16:21:18.276Z,13.60
2023-02-05T16:23:49.460Z,12.30
2023-02-05T16:26:22.199Z,12.10
2023-02-05T16:28:51.932Z,10.90
2023-02-05T16:31:21.998Z,10.60
2023-02-05T16:33:54.433Z,11.70
2023-02-05T16:36:27.906Z,11.20
2023-02-05T16:38:57.583Z,11.30
2023-02-05T16:41:27.326Z,10.70
2023-02-05T16:43:56.045Z,10.30
2023-02-05T16:46:25.887Z,11.40
2023-02-05T16:48:56.397Z,10.90
2023-02-05T16:51:38.098Z,11.40
2023-02-05T16:54:13.253Z,12.10
2023-02-05T16:56:56.635Z,12.20
2023-02-05T16:59:28.517Z,11.90
2023-02-05T17:01:59.471Z,11.20
2023-02-05T17:04:37.088Z,15.50
2023-02-05T17:07:17.910Z,12.40
2023-02-05T17:12:33.378Z,13.70
2023-02-05T17:15:03.304Z,12.10
2023-02-05T17:17:32.442Z,10.80
2023-02-05T17:20:17.199Z,11.90
2023-02-05T17:23:06.166Z,12.10
2023-02-05T17:25:34.978Z,14.50
2023-02-05T17:28:04.122Z,10.40
2023-02-05T17:30:32.673Z,11.70
2023-02-05T17:33:01.000Z,12.00
2023-02-05T17:35:30.812Z,9.70
2023-02-05T17:37:59.560Z,12.60
2023-02-05T17:40:27.834Z,12.30
2023-02-05T17:42:56.553Z,13.10
2023-02-05T17:45:26.601Z,12.30
2023-02-05T17:47:55.140Z,10.50
2023-02-05T17:50:23.876Z,12.00
2023-02-05T17:52:52.436Z,11.40
2023-02-05T17:55:21.989Z,13.20
2023-02-05T17:57:51.608Z,11.80
2023-02-05T18:00:25.034Z,11.10
2023-02-05T18:02:54.005Z,11.60
2023-02-05T18:05:22.568Z,12.10
2023-02-05T18:08:00.035Z,10.00
2023-02-05T18:10:32.390Z,11.20
2023-02-05T18:13:03.864Z,10.80
2023-02-05T18:15:32.163Z,11.80
2023-02-05T18:18:03.534Z,11.00
2023-02-05T18:20:34.379Z,12.40
2023-02-05T18:23:03.903Z,12.70
2023-02-05T18:25:32.901Z,11.60
2023-02-05T18:28:01.330Z,13.30
2023-02-05T18:30:32.255Z,11.60
2023-02-05T18:33:00.677Z,11.00
2023-02-05T18:35:31.208Z,11.30
2023-02-05T18:38:02.516Z,11.80
2023-02-05T18:40:35.798Z,12.20
2023-02-05T18:43:04.999Z,12.00
2023-02-05T18:45:33.530Z,12.30
2023-02-05T18:48:04.227Z,11.90
2023-02-05T18:50:33.929Z,12.50
2023-02-05T18:53:05.309Z,12.40
2023-02-05T18:55:35.892Z,12.70
2023-02-05T18:58:04.985Z,12.70
2023-02-05T19:00:36.387Z,11.90
2023-02-05T19:03:04.827Z,12.90
2023-02-05T19:05:34.876Z,10.90
2023-02-05T19:08:06.263Z,10.10
2023-02-05T19:10:36.929Z,10.60
2023-02-05T19:13:05.318Z,11.40
2023-02-05T19:15:34.956Z,11.90
2023-02-05T19:18:03.629Z,10.90
2023-02-05T19:20:31.925Z,11.60
2023-02-05T19:23:00.277Z,9.80
2023-02-05T19:25:28.901Z,10.30
2023-02-05T19:27:57.165Z,10.70
2023-02-05T19:30:25.726Z,11.20
2023-02-05T19:32:54.479Z,10.40
2023-02-05T19:35:23.087Z,11.00
2023-02-05T19:37:53.688Z,11.60
2023-02-05T19:40:21.994Z,11.40
2023-02-05T19:42:50.670Z,10.50
2023-02-05T19:45:19.406Z,12.00
2023-02-05T19:47:47.930Z,11.10
2023-02-05T19:50:16.953Z,10.60
2023-02-05T19:52:45.767Z,10.60
2023-02-05T19:55:14.427Z,11.20
2023-02-05T19:57:43.062Z,11.80
2023-02-05T20:00:12.256Z,11.30
2023-02-05T20:02:41.631Z,12.20
2023-02-05T20:05:09.936Z,11.10
2023-02-05T20:07:41.425Z,10.90
2023-02-05T20:10:10.721Z,11.50
2023-02-05T20:12:40.378Z,11.00
2023-02-05T20:15:09.291Z,11.60
2023-02-05T20:17:38.085Z,13.30
2023-02-05T20:20:14.184Z,11.50
2023-02-05T20:22:50.929Z,12.50
2023-02-05T20:25:21.065Z,10.80
2023-02-05T20:27:49.472Z,10.40
2023-02-05T20:30:36.781Z,12.00
2023-02-05T20:33:05.255Z,11.30
2023-02-05T20:35:35.647Z,11.10
2023-02-05T20:40:32.711Z,9.80
2023-02-05T20:43:01.040Z,10.00
2023-02-05T20:45:29.400Z,11.50
2023-02-05T20:47:58.612Z,11.90
2023-02-05T20:50:27.172Z,9.80
2023-02-05T20:52:55.425Z,11.00
2023-02-05T20:55:23.907Z,10.40
2023-02-05T20:57:52.309Z,10.70
2023-02-05T21:00:23.404Z,10.70
2023-02-05T21:02:51.734Z,11.50
2023-02-05T21:05:20.099Z,10.60
2023-02-05T21:07:49.837Z,11.60
2023-02-05T21:10:19.535Z,10.30
2023-02-05T21:12:47.862Z,10.10
2023-02-05T21:15:17.238Z,10.70
2023-02-05T21:17:45.460Z,10.30
2023-02-05T21:20:14.086Z,10.60
2023-02-05T21:22:42.726Z,10.70
2023-02-05T21:25:11.021Z,10.90
2023-02-05T21:27:40.372Z,11.00
2023-02-05T21:30:10.988Z,10.50
2023-02-05T21:32:39.532Z,11.10
2023-02-05T21:35:08.031Z,11.10
2023-02-05T21:37:38.628Z,10.60
2023-02-05T21:40:09.608Z,10.50
2023-02-05T21:42:38.582Z,10.30
2023-02-05T21:45:07.863Z,10.20
2023-02-05T21:47:36.648Z,11.20
2023-02-05T21:50:05.182Z,11.50
2023-02-05T21:52:33.561Z,11.20
2023-02-05T21:55:01.973Z,10.80
2023-02-05T21:57:30.312Z,12.80
2023-02-05T21:59:59.004Z,11.30
2023-02-05T22:02:27.316Z,11.10
2023-02-05T22:04:55.737Z,11.50
2023-02-05T22:07:24.932Z,11.10
2023-02-05T22:09:53.082Z,11.50
2023-02-05T22:12:21.496Z,11.50
2023-02-05T22:14:49.971Z,11.60
2023-02-05T22:17:18.366Z,11.40
2023-02-05T22:19:48.144Z,11.80
2023-02-05T22:22:16.424Z,11.30
2023-02-05T22:24:46.535Z,12.10
2023-02-05T22:27:15.665Z,12.30
2023-02-05T22:29:45.019Z,11.10
2023-02-05T22:32:13.316Z,11.40
2023-02-05T22:34:44.750Z,11.60
2023-02-05T22:39:42.897Z,12.50
2023-02-05T22:42:11.127Z,13.80
2023-02-05T22:44:40.247Z,12.40
2023-02-05T22:47:08.457Z,12.30
2023-02-05T22:49:37.653Z,11.20
2023-02-05T22:52:06.001Z,12.20
2023-02-05T22:54:35.872Z,11.60
2023-02-05T22:57:04.191Z,12.50
2023-02-05T22:59:32.981Z,13.00
2023-02-05T23:02:01.637Z,12.00
2023-02-05T23:04:29.951Z,13.50
2023-02-05T23:06:58.203Z,12.80
2023-02-05T23:09:26.623Z,12.20
2023-02-05T23:11:55.818Z,12.50
2023-02-05T23:14:24.188Z,13.00
2023-02-05T23:16:53.227Z,12.30
2023-02-05T23:19:22.723Z,11.60
2023-02-05T23:21:51.038Z,13.50
2023-02-05T23:24:19.747Z,12.40
2023-02-05T23:26:48.986Z,12.80
2023-02-05T23:29:17.558Z,13.70
2023-02-05T23:31:46.277Z,13.80
2023-02-05T23:34:14.523Z,13.90
2023-02-05T23:36:43.272Z,12.70
2023-02-05T23:39:11.595Z,12.80
2023-02-05T23:41:40.292Z,14.10
2023-02-05T23:44:13.868Z,13.60
2023-02-05T23:46:42.475Z,13.80
2023-02-05T23:49:10.791Z,13.80
2023-02-05T23:51:40.472Z,13.60
2023-02-05T23:54:09.601Z,14.60
2023-02-05T23:56:40.370Z,14.20
2023-02-05T23:59:09.433Z,15.80
